createdAt,value
2019-02-06T00:01:08.366Z,102609.89
2019-02-06T00:06:13.231Z,102626.80
2019-02-06T00:11:22.764Z,102609.22
2019-02-06T00:16:27.045Z,102602.09
2019-02-06T00:21:31.994Z,102593.35
2019-02-06T00:26:36.663Z,102579.51
2019-02-06T00:31:38.698Z,102580.84
2019-02-06T00:36:40.884Z,102572.44
2019-02-06T00:41:47.929Z,102572.70
2019-02-06T00:46:50.361Z,102571.31
2019-02-06T00:51:52.380Z,102564.72
2019-02-06T00:56:54.563Z,102555.60
2019-02-06T01:01:56.683Z,102542.80
2019-02-06T01:06:58.731Z,102536.75
2019-02-06T01:12:00.759Z,102526.09
2019-02-06T01:17:07.999Z,102512.39
2019-02-06T01:22:10.129Z,102503.45
2019-02-06T01:27:12.153Z,102497.88
2019-02-06T01:32:14.162Z,102483.89
2019-02-06T01:37:16.184Z,102491.63
2019-02-06T01:42:18.270Z,102488.67
2019-02-06T01:47:20.583Z,102478.22
2019-02-06T01:52:25.136Z,102484.81
2019-02-06T01:57:27.474Z,102487.64
2019-02-06T02:02:29.848Z,102491.15
2019-02-06T02:07:31.850Z,102478.00
2019-02-06T02:12:33.855Z,102479.11
2019-02-06T02:17:35.850Z,102478.17
2019-02-06T02:22:39.963Z,102471.34
2019-02-06T02:27:41.998Z,102473.97
2019-02-06T02:32:44.064Z,102455.90
2019-02-06T02:37:46.148Z,102454.07
2019-02-06T02:42:48.155Z,102442.90
2019-02-06T02:47:50.171Z,102429.30
2019-02-06T02:52:53.202Z,102425.59
2019-02-06T02:57:55.273Z,102422.55
2019-02-06T03:03:05.657Z,102420.31
2019-02-06T03:08:07.687Z,102416.69
2019-02-06T03:13:12.457Z,102414.41
2019-02-06T03:18:15.221Z,102407.34
2019-02-06T03:23:17.235Z,102395.58
2019-02-06T03:28:19.575Z,102396.41
2019-02-06T03:33:21.929Z,102385.63
2019-02-06T03:38:26.256Z,102381.18
2019-02-06T03:43:30.315Z,102397.65
2019-02-06T03:48:32.528Z,102393.62
2019-02-06T03:53:35.869Z,102394.53
2019-02-06T03:58:37.877Z,102383.20
2019-02-06T04:03:42.291Z,102374.33
2019-02-06T04:08:46.417Z,102364.52
2019-02-06T04:13:48.532Z,102354.18
2019-02-06T04:18:50.567Z,102342.37
2019-02-06T04:23:52.625Z,102329.64
2019-02-06T04:28:54.646Z,102332.79
2019-02-06T04:33:57.203Z,102328.66
2019-02-06T04:38:59.263Z,102329.00
2019-02-06T04:44:04.354Z,102347.36
2019-02-06T04:49:06.412Z,102347.53
2019-02-06T04:54:11.072Z,102346.95
2019-02-06T04:59:13.617Z,102339.84
2019-02-06T05:04:15.878Z,102332.21
2019-02-06T05:09:17.929Z,102328.71
2019-02-06T05:14:20.100Z,102326.08
2019-02-06T05:19:24.413Z,102329.66
2019-02-06T05:24:26.558Z,102317.81
2019-02-06T05:29:28.545Z,102317.30
2019-02-06T05:34:30.794Z,102299.22
2019-02-06T05:39:33.218Z,102296.64
2019-02-06T05:44:37.164Z,102292.13
2019-02-06T05:49:39.172Z,102301.75
2019-02-06T05:54:41.206Z,102299.46
2019-02-06T05:59:48.204Z,102301.52
2019-02-06T06:04:51.798Z,102299.26
2019-02-06T06:09:56.939Z,102292.92
2019-02-06T06:14:59.263Z,102289.98
2019-02-06T06:20:01.859Z,102295.41
2019-02-06T06:25:05.477Z,102295.96
2019-02-06T06:30:09.712Z,102298.48
2019-02-06T06:35:11.926Z,102296.23
2019-02-06T06:40:16.565Z,102285.95
2019-02-06T06:45:22.937Z,102281.30
2019-02-06T06:50:24.952Z,102275.55
2019-02-06T06:55:30.023Z,102280.02
2019-02-06T07:00:32.380Z,102282.02
2019-02-06T07:05:34.764Z,102291.52
2019-02-06T07:10:37.372Z,102282.74
2019-02-06T07:15:46.319Z,102277.19
2019-02-06T07:20:48.347Z,102277.34
2019-02-06T07:25:50.420Z,102276.89
2019-02-06T07:30:52.747Z,102280.73
2019-02-06T07:35:55.313Z,102289.20
2019-02-06T07:41:03.220Z,102287.79
2019-02-06T07:46:05.319Z,102283.31
2019-02-06T07:51:07.335Z,102288.65
2019-02-06T07:56:09.547Z,102298.45
2019-02-06T08:01:11.749Z,102299.34
2019-02-06T08:06:13.891Z,102311.51
2019-02-06T08:11:15.939Z,102316.08
2019-02-06T08:16:20.860Z,102323.17
2019-02-06T08:21:24.433Z,102327.83
2019-02-06T08:26:27.926Z,102325.86
2019-02-06T08:31:29.976Z,102320.45
2019-02-06T08:36:32.419Z,102325.56
2019-02-06T08:41:34.815Z,102322.72
2019-02-06T08:46:37.059Z,102322.78
2019-02-06T08:51:39.086Z,102323.20
2019-02-06T08:56:41.142Z,102314.34
2019-02-06T09:01:43.370Z,102313.48
2019-02-06T09:06:45.667Z,102307.27
2019-02-06T09:11:47.809Z,102306.92
2019-02-06T09:16:50.110Z,102314.77
2019-02-06T09:21:52.378Z,102306.08
2019-02-06T09:26:54.755Z,102314.86
2019-02-06T09:31:59.350Z,102319.62
2019-02-06T09:37:00.888Z,102309.73
2019-02-06T09:42:05.709Z,102318.90
2019-02-06T09:47:08.056Z,102314.44
2019-02-06T09:52:10.085Z,102308.33
2019-02-06T09:57:13.865Z,102314.59
2019-02-06T10:02:16.015Z,102315.92
2019-02-06T10:07:18.068Z,102315.55
2019-02-06T10:12:20.099Z,102313.82
2019-02-06T10:17:22.176Z,102311.02
2019-02-06T10:22:24.315Z,102315.08
2019-02-06T10:27:26.951Z,102312.59
2019-02-06T10:32:29.032Z,102309.33
2019-02-06T10:37:33.590Z,102308.76
2019-02-06T10:42:37.678Z,102315.13
2019-02-06T10:47:41.355Z,102300.52
2019-02-06T10:52:43.436Z,102299.95
2019-02-06T10:57:50.422Z,102298.63
2019-02-06T11:02:52.667Z,102298.28
2019-02-06T11:07:55.938Z,102288.80
2019-02-06T11:12:58.376Z,102294.25
2019-02-06T11:18:00.398Z,102287.67
2019-02-06T11:23:02.755Z,102283.17
2019-02-06T11:28:08.178Z,102277.79
2019-02-06T11:33:10.270Z,102273.36
2019-02-06T11:38:12.372Z,102262.45
2019-02-06T11:43:14.780Z,102251.25
2019-02-06T11:48:16.856Z,102245.57
2019-02-06T11:53:27.011Z,102248.04
2019-02-06T11:58:29.188Z,102244.30
2019-02-06T12:03:33.092Z,102249.66
2019-02-06T12:08:35.126Z,102240.28
2019-02-06T12:13:37.313Z,102230.03
2019-02-06T12:18:39.366Z,102231.23
2019-02-06T12:23:47.693Z,102225.84
2019-02-06T12:28:51.739Z,102219.44
2019-02-06T12:33:53.776Z,102210.98
2019-02-06T12:38:55.798Z,102213.68
2019-02-06T12:43:58.178Z,102199.02
2019-02-06T12:49:00.203Z,102198.38
2019-02-06T12:54:05.123Z,102180.35
2019-02-06T12:59:09.852Z,102173.59
2019-02-06T13:04:11.882Z,102166.93
2019-02-06T13:09:15.008Z,102169.33
2019-02-06T13:14:17.386Z,102170.07
2019-02-06T13:19:21.785Z,102159.09
2019-02-06T13:24:24.328Z,102158.98
2019-02-06T13:29:26.384Z,102144.24
2019-02-06T13:34:33.603Z,102140.55
2019-02-06T13:39:35.640Z,102141.30
2019-02-06T13:44:41.604Z,102144.16
2019-02-06T13:49:47.049Z,102142.55
2019-02-06T13:54:49.508Z,102127.98
2019-02-06T13:59:51.497Z,102136.32
2019-02-06T14:04:55.617Z,102134.77
2019-02-06T14:09:57.631Z,102128.92
2019-02-06T14:15:01.580Z,102127.68
2019-02-06T14:20:05.929Z,102118.98
2019-02-06T14:26:22.199Z,102121.34
2019-02-06T14:32:04.385Z,102106.39
2019-02-06T14:37:43.247Z,102105.48
2019-02-06T14:43:06.849Z,102098.47
2019-02-06T14:48:20.872Z,102084.59
2019-02-06T14:54:08.991Z,102077.19
2019-02-06T14:59:55.040Z,102064.03
2019-02-06T15:05:36.263Z,102061.20
2019-02-06T15:11:00.373Z,102048.72
2019-02-06T15:16:47.513Z,102045.79
2019-02-06T15:22:26.005Z,102026.77
2019-02-06T15:28:12.570Z,102033.69
2019-02-06T15:33:47.383Z,102032.64
2019-02-06T15:39:40.638Z,102034.34
2019-02-06T15:45:14.595Z,102000.56
2019-02-06T15:50:36.624Z,102018.83
2019-02-06T15:56:15.395Z,102015.42
2019-02-06T16:01:39.823Z,102012.96
2019-02-06T16:07:02.874Z,102014.11
2019-02-06T16:12:43.288Z,102012.11
2019-02-06T16:18:30.640Z,102013.34
2019-02-06T16:24:26.821Z,102019.68
2019-02-06T16:30:19.975Z,102019.10
2019-02-06T16:36:18.653Z,102014.38
2019-02-06T16:41:37.107Z,101999.81
2019-02-06T16:47:23.983Z,101991.02
2019-02-06T16:53:13.910Z,101981.48
2019-02-06T16:58:55.070Z,101971.53
2019-02-06T17:04:27.176Z,101968.87
2019-02-06T17:09:57.068Z,101966.82
2019-02-06T17:15:33.256Z,101965.77
2019-02-06T17:21:15.456Z,101955.26
2019-02-06T17:26:59.400Z,101956.30
2019-02-06T17:32:11.641Z,101955.73
2019-02-06T17:37:36.872Z,101963.80
2019-02-06T17:43:01.262Z,101954.77
2019-02-06T17:48:32.833Z,101955.63
2019-02-06T17:54:00.051Z,101941.75
2019-02-06T17:59:04.349Z,101940.42
2019-02-06T18:04:14.184Z,101941.05
2019-02-06T18:09:17.396Z,101922.90
2019-02-06T18:14:22.804Z,101919.86
2019-02-06T18:19:35.381Z,101921.37
2019-02-06T18:24:37.575Z,101925.35
2019-02-06T18:29:41.653Z,101916.16
2019-02-06T18:34:43.666Z,101907.00
2019-02-06T18:39:45.646Z,101907.47
2019-02-06T18:44:49.913Z,101901.78
2019-02-06T18:49:51.945Z,101902.64
2019-02-06T18:54:54.023Z,101891.06
2019-02-06T18:59:58.346Z,101884.17
2019-02-06T19:05:00.484Z,101874.23
2019-02-06T19:10:05.040Z,101856.81
2019-02-06T19:15:10.465Z,101849.99
2019-02-06T19:20:12.902Z,101843.42
2019-02-06T19:25:16.998Z,101841.57
2019-02-06T19:30:27.904Z,101831.26
2019-02-06T19:35:30.283Z,101814.10
2019-02-06T19:40:37.373Z,101808.52
2019-02-06T19:45:39.668Z,101798.86
2019-02-06T19:50:46.209Z,101789.17
2019-02-06T19:55:48.392Z,101788.99
2019-02-06T20:00:50.495Z,101782.02
2019-02-06T20:05:52.947Z,101772.89
2019-02-06T20:10:55.310Z,101763.81
2019-02-06T20:15:57.461Z,101748.06
2019-02-06T20:20:59.780Z,101747.71
2019-02-06T20:26:04.637Z,101732.58
2019-02-06T20:31:06.636Z,101724.42
2019-02-06T20:36:08.750Z,101726.09
2019-02-06T20:41:10.808Z,101721.23
2019-02-06T20:46:13.237Z,101711.44
2019-02-06T20:51:15.263Z,101703.97
2019-02-06T20:56:18.016Z,101702.99
2019-02-06T21:01:23.421Z,101688.70
2019-02-06T21:06:28.427Z,101677.97
2019-02-06T21:11:30.437Z,101673.36
2019-02-06T21:16:32.503Z,101669.88
2019-02-06T21:21:34.607Z,101669.72
2019-02-06T21:26:36.795Z,101663.82
2019-02-06T21:31:41.776Z,101653.64
2019-02-06T21:36:46.564Z,101644.84
2019-02-06T21:41:48.639Z,101640.95
2019-02-06T21:46:54.079Z,101637.31
2019-02-06T21:51:59.702Z,101619.39
2019-02-06T21:57:01.766Z,101608.25
2019-02-06T22:02:03.790Z,101597.43
2019-02-06T22:07:08.975Z,101596.48
2019-02-06T22:12:10.999Z,101590.97
2019-02-06T22:17:27.058Z,101576.41
2019-02-06T22:22:29.398Z,101571.48
2019-02-06T22:27:34.269Z,101557.95
2019-02-06T22:32:38.875Z,101551.55
2019-02-06T22:37:48.610Z,101542.20
2019-02-06T22:42:54.547Z,101534.53
2019-02-06T22:47:56.607Z,101524.84
2019-02-06T22:52:58.723Z,101515.34
2019-02-06T22:58:02.037Z,101501.97
2019-02-06T23:03:04.374Z,101495.00
2019-02-06T23:08:06.403Z,101483.20
2019-02-06T23:13:08.634Z,101483.00
2019-02-06T23:18:11.905Z,101476.34
2019-02-06T23:23:14.149Z,101463.22
2019-02-06T23:28:16.522Z,101458.23
2019-02-06T23:33:21.481Z,101449.55
2019-02-06T23:38:28.489Z,101437.08
2019-02-06T23:43:32.628Z,101418.28
2019-02-06T23:48:34.650Z,101403.20
2019-02-06T23:53:36.689Z,101394.75
2019-02-06T23:58:39.028Z,101375.98
